createdAt,value
2018-06-27T00:01:07.087Z,18.52
2018-06-27T00:02:17.199Z,18.63
2018-06-27T00:03:26.999Z,18.51
2018-06-27T00:04:36.792Z,18.43
2018-06-27T00:05:46.597Z,18.42
2018-06-27T00:06:56.683Z,18.49
2018-06-27T00:08:06.275Z,18.39
2018-06-27T00:09:15.794Z,18.33
2018-06-27T00:10:25.865Z,18.37
2018-06-27T00:11:35.682Z,18.42
2018-06-27T00:12:45.766Z,18.31
2018-06-27T00:13:55.896Z,18.3
2018-06-27T00:15:05.685Z,18.16
2018-06-27T00:16:15.495Z,18.23
2018-06-27T00:17:25.034Z,18.08
2018-06-27T00:18:35.114Z,18.06
2018-06-27T00:19:45.261Z,18
2018-06-27T00:20:55.345Z,17.97
2018-06-27T00:22:04.886Z,17.93
2018-06-27T00:23:14.964Z,17.91
2018-06-27T00:24:25.034Z,17.93
2018-06-27T00:25:34.605Z,17.98
2018-06-27T00:26:44.134Z,17.93
2018-06-27T00:27:54.213Z,17.87
2018-06-27T00:29:04.023Z,17.88
2018-06-27T00:30:13.547Z,17.87
2018-06-27T00:31:23.666Z,17.9
2018-06-27T00:32:33.728Z,17.94
2018-06-27T00:33:43.534Z,17.95
2018-06-27T00:34:53.745Z,17.93
2018-06-27T00:36:03.279Z,17.98
2018-06-27T00:37:13.125Z,17.93
2018-06-27T00:38:23.194Z,17.91
2018-06-27T00:39:33.007Z,17.88
2018-06-27T00:40:43.090Z,17.95
2018-06-27T00:41:52.626Z,18.05
2018-06-27T00:43:02.750Z,18.03
2018-06-27T00:44:12.286Z,18.12
2018-06-27T00:45:21.555Z,18.13
2018-06-27T00:46:31.630Z,18.19
2018-06-27T00:47:41.436Z,18.24
2018-06-27T00:48:51.279Z,18.31
2018-06-27T00:50:01.414Z,18.36
2018-06-27T00:51:11.216Z,18.28
2018-06-27T00:52:21.289Z,18.3
2018-06-27T00:53:31.372Z,18.26
2018-06-27T00:54:41.508Z,18.26
2018-06-27T00:55:51.037Z,18.33
2018-06-27T00:57:00.838Z,18.42
2018-06-27T00:58:10.934Z,18.45
2018-06-27T00:59:20.477Z,18.51
2018-06-27T01:00:30.330Z,18.48
2018-06-27T01:01:40.409Z,18.46
2018-06-27T01:02:50.470Z,18.48
2018-06-27T01:04:00.277Z,18.58
2018-06-27T01:05:10.356Z,18.61
2018-06-27T01:06:20.486Z,18.6
2018-06-27T01:07:30.540Z,18.61
2018-06-27T01:08:40.622Z,18.55
2018-06-27T01:09:50.693Z,18.55
2018-06-27T01:11:00.769Z,18.55
2018-06-27T01:12:10.625Z,18.52
2018-06-27T01:13:20.683Z,18.42
2018-06-27T01:14:29.946Z,18.52
2018-06-27T01:15:39.739Z,18.39
2018-06-27T01:16:49.818Z,18.42
2018-06-27T01:17:59.663Z,18.36
2018-06-27T01:19:09.467Z,18.31
2018-06-27T01:20:19.551Z,18.26
2018-06-27T01:21:29.085Z,18.33
2018-06-27T01:22:38.612Z,18.24
2018-06-27T01:23:48.466Z,18.23
2018-06-27T01:24:58.528Z,18.21
2018-06-27T01:26:08.340Z,18.12
2018-06-27T01:27:17.852Z,18.11
2018-06-27T01:28:27.375Z,18.08
2018-06-27T01:29:37.234Z,18.06
2018-06-27T01:30:47.324Z,18.08
2018-06-27T01:31:57.391Z,18.06
2018-06-27T01:33:06.909Z,18.13
2018-06-27T01:34:16.695Z,18.15
2018-06-27T01:35:26.829Z,18.19
2018-06-27T01:36:36.639Z,18.12
2018-06-27T01:37:46.711Z,18.18
2018-06-27T01:38:56.817Z,18.19
2018-06-27T01:40:06.909Z,18.23
2018-06-27T01:41:16.758Z,18.21
2018-06-27T01:42:26.554Z,18.24
2018-06-27T01:43:36.612Z,18.23
2018-06-27T01:44:46.476Z,18.23
2018-06-27T01:45:56.559Z,18.23
2018-06-27T01:47:06.693Z,18.21
2018-06-27T01:48:16.216Z,18.16
2018-06-27T01:49:26.283Z,18.16
2018-06-27T01:50:36.103Z,18.13
2018-06-27T01:51:45.906Z,18.18
2018-06-27T01:52:56.050Z,18.12
2018-06-27T01:54:06.110Z,18.16
2018-06-27T01:55:16.184Z,18.15
2018-06-27T01:56:26.279Z,18.13
2018-06-27T01:57:36.341Z,18.18
2018-06-27T01:58:46.209Z,18.08
2018-06-27T01:59:55.989Z,18.08
2018-06-27T02:01:06.059Z,18.08
2018-06-27T02:02:16.139Z,18.02
2018-06-27T02:03:26.199Z,17.98
2018-06-27T02:04:36.299Z,17.98
2018-06-27T02:05:46.100Z,17.93
2018-06-27T02:06:55.913Z,17.87
2018-06-27T02:08:06.000Z,17.9
2018-06-27T02:09:16.131Z,17.87
2018-06-27T02:10:25.997Z,17.76
2018-06-27T02:11:35.795Z,17.86
2018-06-27T02:12:45.872Z,17.78
2018-06-27T02:13:55.948Z,17.84
2018-06-27T02:15:06.028Z,17.78
2018-06-27T02:16:15.610Z,17.78
2018-06-27T02:17:25.688Z,17.72
2018-06-27T02:18:35.759Z,17.8
2018-06-27T02:19:45.817Z,17.71
2018-06-27T02:20:55.354Z,17.82
2018-06-27T02:22:05.476Z,17.8
2018-06-27T02:23:15.281Z,17.69
2018-06-27T02:24:25.357Z,17.65
2018-06-27T02:25:35.437Z,17.57
2018-06-27T02:26:45.516Z,17.65
2018-06-27T02:27:55.679Z,17.56
2018-06-27T02:29:05.759Z,17.52
2018-06-27T02:30:15.838Z,17.52
2018-06-27T02:31:25.639Z,17.39
2018-06-27T02:32:35.702Z,17.42
2018-06-27T02:33:45.824Z,17.31
2018-06-27T02:34:55.907Z,17.34
2018-06-27T02:36:05.977Z,17.23
2018-06-27T02:37:16.068Z,17.34
2018-06-27T02:38:26.161Z,17.31
2018-06-27T02:39:36.007Z,17.35
2018-06-27T02:40:45.613Z,17.3
2018-06-27T02:41:55.689Z,17.17
2018-06-27T02:43:05.513Z,17.1
2018-06-27T02:44:15.317Z,17.14
2018-06-27T02:45:24.899Z,17.02
2018-06-27T02:46:34.706Z,17.04
2018-06-27T02:47:44.783Z,17.02
2018-06-27T02:48:54.856Z,17.04
2018-06-27T02:50:04.663Z,16.92
2018-06-27T02:51:14.786Z,16.97
2018-06-27T02:52:24.861Z,16.91
2018-06-27T02:53:34.667Z,16.86
2018-06-27T02:54:44.468Z,16.8
2018-06-27T02:55:54.287Z,16.82
2018-06-27T02:57:04.161Z,16.86
2018-06-27T02:58:14.234Z,16.87
2018-06-27T02:59:23.762Z,16.84
2018-06-27T03:03:28.526Z,16.86
2018-06-27T03:04:38.625Z,16.83
2018-06-27T03:05:48.713Z,16.89
2018-06-27T03:06:58.807Z,16.86
2018-06-27T03:08:08.058Z,16.95
2018-06-27T03:09:18.468Z,16.95
2018-06-27T03:10:28.595Z,16.99
2018-06-27T03:11:38.411Z,16.97
2018-06-27T03:12:48.200Z,16.91
2018-06-27T03:13:58.303Z,16.92
2018-06-27T03:15:08.160Z,16.95
2018-06-27T03:16:17.965Z,16.95
2018-06-27T03:17:28.073Z,17.02
2018-06-27T03:18:38.139Z,16.94
2018-06-27T03:19:47.687Z,16.98
2018-06-27T03:20:57.267Z,17.02
2018-06-27T03:22:06.802Z,17.02
2018-06-27T03:23:16.612Z,17.1
2018-06-27T03:24:26.405Z,17.09
2018-06-27T03:25:35.927Z,17.02
2018-06-27T03:26:46.043Z,17.05
2018-06-27T03:27:56.111Z,17.09
2018-06-27T03:29:06.179Z,17.1
2018-06-27T03:30:15.996Z,17.1
2018-06-27T03:31:26.073Z,17.01
2018-06-27T03:32:35.933Z,16.99
2018-06-27T03:33:46.017Z,17.04
2018-06-27T03:34:56.384Z,17.01
2018-06-27T03:36:06.177Z,17.01
2018-06-27T03:37:15.988Z,16.97
2018-06-27T03:38:26.117Z,16.99
2018-06-27T03:39:35.370Z,17.01
2018-06-27T03:40:45.431Z,17.04
2018-06-27T03:41:55.240Z,17.02
2018-06-27T03:43:05.299Z,17.01
2018-06-27T03:44:15.423Z,17.05
2018-06-27T03:45:25.494Z,16.99
2018-06-27T03:46:35.307Z,17.14
2018-06-27T03:47:45.108Z,17.01
2018-06-27T03:48:54.918Z,16.99
2018-06-27T03:50:04.495Z,17.1
2018-06-27T03:51:14.291Z,17.09
2018-06-27T03:52:24.083Z,17.02
2018-06-27T03:53:34.167Z,17.09
2018-06-27T03:54:43.687Z,17.09
2018-06-27T03:55:53.799Z,17.16
2018-06-27T03:57:03.868Z,17.17
2018-06-27T03:58:13.938Z,17.16
2018-06-27T03:59:24.014Z,17.13
2018-06-27T04:00:34.085Z,17.22
2018-06-27T04:01:43.946Z,17.17
2018-06-27T04:02:54.009Z,17.17
2018-06-27T04:04:03.574Z,17.16
2018-06-27T04:05:13.658Z,17.16
2018-06-27T04:06:23.727Z,17.16
2018-06-27T04:07:33.589Z,17.1
2018-06-27T04:08:43.668Z,17.14
2018-06-27T04:09:53.724Z,17.13
2018-06-27T04:11:03.545Z,17.2
2018-06-27T04:12:13.075Z,17.16
2018-06-27T04:13:23.568Z,17.09
2018-06-27T04:14:34.107Z,17.17
2018-06-27T04:15:43.932Z,17.13
2018-06-27T04:16:54.057Z,17.1
2018-06-27T04:18:03.569Z,17.04
2018-06-27T04:19:13.719Z,17.12
2018-06-27T04:20:23.775Z,17.12
2018-06-27T04:21:33.331Z,17.12
2018-06-27T04:22:43.138Z,17.07
2018-06-27T04:23:52.924Z,17.19
2018-06-27T04:25:03.041Z,17.23
2018-06-27T04:26:12.581Z,17.2
2018-06-27T04:27:22.665Z,17.24
2018-06-27T04:28:32.493Z,17.31
2018-06-27T04:29:42.614Z,17.32
2018-06-27T04:30:52.746Z,17.41
2018-06-27T04:32:02.557Z,17.41
2018-06-27T04:33:12.623Z,17.49
2018-06-27T04:34:22.697Z,17.44
2018-06-27T04:35:32.474Z,17.49
2018-06-27T04:36:42.325Z,17.56
2018-06-27T04:37:52.129Z,17.56
2018-06-27T04:39:02.195Z,17.69
2018-06-27T04:40:11.715Z,17.68
2018-06-27T04:41:21.535Z,17.78
2018-06-27T04:42:31.113Z,17.71
2018-06-27T04:43:40.910Z,17.68
2018-06-27T04:44:50.964Z,17.69
2018-06-27T04:46:00.767Z,17.8
2018-06-27T04:47:10.857Z,17.76
2018-06-27T04:48:20.983Z,17.82
2018-06-27T04:49:31.177Z,17.84
2018-06-27T04:50:41.474Z,17.93
2018-06-27T04:51:51.283Z,17.9
2018-06-27T04:53:01.087Z,17.93
2018-06-27T04:54:10.940Z,18.02
2018-06-27T04:55:20.731Z,17.97
2018-06-27T04:56:30.539Z,18
2018-06-27T04:57:40.624Z,18.06
2018-06-27T04:58:50.419Z,18.06
2018-06-27T05:00:00.275Z,18.11
2018-06-27T05:01:10.363Z,18.12
2018-06-27T05:02:20.442Z,18.24
2018-06-27T05:03:29.974Z,18.28
2018-06-27T05:04:39.509Z,18.21
2018-06-27T05:05:49.365Z,18.21
2018-06-27T05:06:59.227Z,18.3
2018-06-27T05:08:09.049Z,18.46
2018-06-27T05:09:18.590Z,18.39
2018-06-27T05:10:28.394Z,18.37
2018-06-27T05:11:38.391Z,18.43
2018-06-27T05:12:48.637Z,18.39
2018-06-27T05:13:58.198Z,18.43
2018-06-27T05:15:08.303Z,18.55
2018-06-27T05:16:17.838Z,18.61
2018-06-27T05:17:27.953Z,18.6
2018-06-27T05:18:37.759Z,18.52
2018-06-27T05:19:47.822Z,18.6
2018-06-27T05:20:57.879Z,18.61
2018-06-27T05:22:07.434Z,18.76
2018-06-27T05:23:17.282Z,18.79
2018-06-27T05:24:27.381Z,18.88
2018-06-27T05:25:37.174Z,18.83
2018-06-27T05:26:46.968Z,18.91
2018-06-27T05:27:57.055Z,18.85
2018-06-27T05:29:06.927Z,18.86
2018-06-27T05:30:16.979Z,18.86
2018-06-27T05:31:26.496Z,18.96
2018-06-27T05:32:36.331Z,19.07
2018-06-27T05:33:46.576Z,19.05
2018-06-27T05:34:56.763Z,19.05
2018-06-27T05:36:06.832Z,19.04
2018-06-27T05:37:16.649Z,19.12
2018-06-27T05:38:26.448Z,19.05
2018-06-27T05:39:35.992Z,19.04
2018-06-27T05:40:46.112Z,19.11
2018-06-27T05:41:56.213Z,19
2018-06-27T05:43:06.015Z,19
2018-06-27T05:44:16.221Z,18.85
2018-06-27T05:45:26.279Z,18.89
2018-06-27T05:46:36.398Z,18.81
2018-06-27T05:47:46.199Z,18.83
2018-06-27T05:48:56.269Z,18.88
2018-06-27T05:50:06.346Z,18.91
2018-06-27T05:51:16.403Z,19.01
2018-06-27T05:52:26.244Z,19.01
2018-06-27T05:53:35.800Z,19.09
2018-06-27T05:54:45.597Z,19.17
2018-06-27T05:55:55.684Z,18.94
2018-06-27T05:57:05.763Z,19.01
2018-06-27T05:58:16.076Z,19.04
2018-06-27T05:59:25.731Z,19.16
2018-06-27T06:00:35.797Z,19.11
2018-06-27T06:01:45.321Z,19.08
2018-06-27T06:02:55.145Z,19.2
2018-06-27T06:04:05.283Z,19.22
2018-06-27T06:05:15.367Z,19.32
2018-06-27T06:06:25.482Z,19.42
2018-06-27T06:07:34.759Z,19.47
2018-06-27T06:08:44.824Z,19.59
2018-06-27T06:09:54.957Z,19.66
2018-06-27T06:11:05.045Z,19.7
2018-06-27T06:12:14.948Z,19.78
2018-06-27T06:13:24.511Z,19.82
2018-06-27T06:14:34.034Z,19.82
2018-06-27T06:15:43.890Z,19.85
2018-06-27T06:16:53.976Z,19.78
2018-06-27T06:18:04.048Z,19.96
2018-06-27T06:19:13.863Z,19.96
2018-06-27T06:20:23.649Z,20
2018-06-27T06:21:33.231Z,19.87
2018-06-27T06:22:43.041Z,19.87
2018-06-27T06:23:52.556Z,20.03
2018-06-27T06:25:02.641Z,20.07
2018-06-27T06:26:12.720Z,20.07
2018-06-27T06:27:22.854Z,20.07
2018-06-27T06:28:32.915Z,20.08
2018-06-27T06:29:42.722Z,20.08
2018-06-27T06:30:52.796Z,20.08
2018-06-27T06:32:02.878Z,20.1
2018-06-27T06:33:13.116Z,20.1
2018-06-27T06:34:22.651Z,20.14
2018-06-27T06:35:32.730Z,20.18
2018-06-27T06:36:42.278Z,20.26
2018-06-27T06:37:52.376Z,20.27
2018-06-27T06:39:02.655Z,20.3
2018-06-27T06:40:13.046Z,20.4
2018-06-27T06:41:23.288Z,20.34
2018-06-27T06:42:33.376Z,20.39
2018-06-27T06:43:43.454Z,20.34
2018-06-27T06:44:53.608Z,20.39
2018-06-27T06:46:03.840Z,20.42
2018-06-27T06:47:13.798Z,20.37
2018-06-27T06:48:23.313Z,20.5
2018-06-27T06:49:33.124Z,20.49
2018-06-27T06:50:42.994Z,20.48
2018-06-27T06:51:52.522Z,20.55
2018-06-27T06:53:02.353Z,20.6
2018-06-27T06:54:12.438Z,20.77
2018-06-27T06:55:22.236Z,20.85
2018-06-27T06:56:32.371Z,20.95
2018-06-27T06:57:42.453Z,20.86
2018-06-27T06:58:52.333Z,20.85
2018-06-27T07:00:01.872Z,20.93
2018-06-27T07:01:11.399Z,20.92
2018-06-27T07:02:21.268Z,21.04
2018-06-27T07:03:31.345Z,21.08
2018-06-27T07:04:41.139Z,21.08
2018-06-27T07:05:50.681Z,21.11
2018-06-27T07:07:00.479Z,21.19
2018-06-27T07:08:09.786Z,21.19
2018-06-27T07:09:19.848Z,21.25
2018-06-27T07:10:29.392Z,21.19
2018-06-27T07:11:39.465Z,21.26
2018-06-27T07:12:48.723Z,21.35
2018-06-27T07:13:58.839Z,21.38
2018-06-27T07:15:08.664Z,21.43
2018-06-27T07:16:18.456Z,21.35
2018-06-27T07:17:27.742Z,21.43
2018-06-27T07:18:37.816Z,21.48
2018-06-27T07:19:47.656Z,21.51
2018-06-27T07:20:57.461Z,21.5
2018-06-27T07:22:07.004Z,21.51
2018-06-27T07:23:17.078Z,21.53
2018-06-27T07:24:26.625Z,21.58
2018-06-27T07:25:36.219Z,21.54
2018-06-27T07:26:46.024Z,21.56
2018-06-27T07:27:56.102Z,21.66
2018-06-27T07:29:06.185Z,21.66
2018-06-27T07:30:15.742Z,21.72
2018-06-27T07:31:25.903Z,21.72
2018-06-27T07:32:35.699Z,21.75
2018-06-27T07:33:45.227Z,21.75
2018-06-27T07:34:54.756Z,21.81
2018-06-27T07:36:04.448Z,21.8
2018-06-27T07:37:14.384Z,21.78
2018-06-27T07:38:24.486Z,21.72
2018-06-27T07:39:34.562Z,21.85
2018-06-27T07:40:44.635Z,21.77
2018-06-27T07:41:54.734Z,21.78
2018-06-27T07:43:04.347Z,21.8
2018-06-27T07:44:14.428Z,21.77
2018-06-27T07:45:24.534Z,21.91
2018-06-27T07:46:34.074Z,21.91
2018-06-27T07:47:43.890Z,21.94
2018-06-27T07:48:54.019Z,21.92
2018-06-27T07:50:04.104Z,22.03
2018-06-27T07:51:13.624Z,22.04
2018-06-27T07:52:23.719Z,22.06
2018-06-27T07:53:33.525Z,22.06
2018-06-27T07:54:43.165Z,22.04
2018-06-27T07:55:52.983Z,22.03
2018-06-27T07:57:02.800Z,22.08
2018-06-27T07:58:12.343Z,22.08
2018-06-27T07:59:21.889Z,22.23
2018-06-27T08:00:31.203Z,22.19
2018-06-27T08:01:41.024Z,22.18
2018-06-27T08:02:51.105Z,22.16
2018-06-27T08:04:01.172Z,22.15
2018-06-27T08:05:11.239Z,22.18
2018-06-27T08:06:21.110Z,22.1
2018-06-27T08:07:31.209Z,22.14
2018-06-27T08:08:41.031Z,22.14
2018-06-27T08:09:51.106Z,22.14
2018-06-27T08:11:01.185Z,22
2018-06-27T08:12:11.039Z,22.07
2018-06-27T08:13:21.197Z,22.03
2018-06-27T08:14:30.198Z,22.04
2018-06-27T08:15:39.998Z,22.1
2018-06-27T08:16:49.804Z,22.16
2018-06-27T08:18:00.465Z,22.14
2018-06-27T08:19:10.781Z,22.21
2018-06-27T08:20:20.861Z,22.18
2018-06-27T08:21:30.685Z,22.18
2018-06-27T08:22:40.814Z,22.19
2018-06-27T08:23:50.663Z,22.22
2018-06-27T08:25:00.733Z,22.22
2018-06-27T08:26:10.604Z,22.25
2018-06-27T08:27:21.203Z,22.23
2018-06-27T08:28:30.471Z,22.28
2018-06-27T08:29:39.800Z,22.43
2018-06-27T08:30:49.871Z,22.31
2018-06-27T08:31:59.952Z,22.36
2018-06-27T08:33:09.495Z,22.37
2018-06-27T08:34:19.571Z,22.43
2018-06-27T08:35:29.434Z,22.43
2018-06-27T08:36:39.244Z,22.44
2018-06-27T08:37:49.056Z,22.44
2018-06-27T08:38:59.144Z,22.44
2018-06-27T08:40:09.225Z,22.52
2018-06-27T08:41:19.067Z,22.51
2018-06-27T08:42:28.910Z,22.52
2018-06-27T08:43:38.780Z,22.59
2018-06-27T08:44:48.784Z,22.58
2018-06-27T08:45:58.596Z,22.44
2018-06-27T08:47:08.701Z,22.55
2018-06-27T08:48:18.786Z,22.56
2018-06-27T08:49:28.589Z,22.53
2018-06-27T08:50:38.674Z,22.65
2018-06-27T08:51:48.487Z,22.62
2018-06-27T08:52:58.351Z,22.63
2018-06-27T08:54:08.437Z,22.7
2018-06-27T08:55:18.243Z,22.7
2018-06-27T08:56:28.053Z,22.68
2018-06-27T08:57:37.877Z,22.81
2018-06-27T08:58:48.193Z,22.84
2018-06-27T08:59:58.313Z,22.93
2018-06-27T09:01:07.844Z,22.81
2018-06-27T09:02:17.374Z,22.83
2018-06-27T09:03:26.894Z,22.83
2018-06-27T09:04:37.011Z,22.84
2018-06-27T09:05:46.540Z,22.89
2018-06-27T09:06:56.358Z,22.98
2018-06-27T09:08:06.424Z,22.93
2018-06-27T09:09:16.245Z,22.89
2018-06-27T09:10:26.085Z,22.96
2018-06-27T09:11:36.156Z,22.91
2018-06-27T09:12:45.701Z,22.96
2018-06-27T09:13:55.782Z,22.95
2018-06-27T09:15:05.579Z,23.02
2018-06-27T09:16:15.439Z,23.16
2018-06-27T09:17:24.975Z,23.11
2018-06-27T09:18:34.834Z,23.16
2018-06-27T09:19:44.520Z,23.11
2018-06-27T09:20:54.620Z,23.11
2018-06-27T09:22:04.227Z,23.25
2018-06-27T09:23:14.318Z,23.02
2018-06-27T09:24:24.122Z,22.99
2018-06-27T09:25:33.938Z,22.95
2018-06-27T09:26:43.215Z,22.96
2018-06-27T09:27:53.353Z,23.04
2018-06-27T09:29:02.909Z,23.17
2018-06-27T09:30:12.718Z,23.2
2018-06-27T09:31:22.061Z,23.16
2018-06-27T09:32:32.150Z,23.23
2018-06-27T09:33:42.270Z,23.17
2018-06-27T09:34:51.529Z,23.32
2018-06-27T09:36:01.059Z,23.28
2018-06-27T09:37:10.890Z,23.36
2018-06-27T09:38:20.981Z,23.39
2018-06-27T09:39:30.839Z,23.45
2018-06-27T09:40:40.916Z,23.45
2018-06-27T09:41:50.741Z,23.49
2018-06-27T09:43:00.649Z,23.45
2018-06-27T09:44:10.465Z,23.54
2018-06-27T09:45:20.061Z,23.55
2018-06-27T09:46:30.137Z,23.59
2018-06-27T09:47:39.661Z,23.63
2018-06-27T09:48:49.462Z,23.7
2018-06-27T09:49:59.538Z,23.73
2018-06-27T09:51:09.431Z,23.81
2018-06-27T09:52:19.507Z,23.77
2018-06-27T09:53:29.338Z,23.81
2018-06-27T09:54:39.147Z,23.85
2018-06-27T09:55:49.228Z,23.89
2018-06-27T09:56:58.931Z,23.91
2018-06-27T09:58:08.519Z,23.92
2018-06-27T09:59:18.592Z,23.84
2018-06-27T10:00:28.415Z,23.95
2018-06-27T10:01:38.530Z,23.96
2018-06-27T10:02:48.658Z,24.03
2018-06-27T10:03:58.203Z,24
2018-06-27T10:05:08.032Z,24.07
2018-06-27T10:06:17.579Z,24.11
2018-06-27T10:07:27.119Z,24.09
2018-06-27T10:08:37.251Z,24.11
2018-06-27T10:09:47.354Z,24.31
2018-06-27T10:10:57.437Z,24.37
2018-06-27T10:12:07.513Z,24.4
2018-06-27T10:13:17.075Z,24.48
2018-06-27T10:14:26.926Z,24.61
2018-06-27T10:15:36.740Z,24.56
2018-06-27T10:16:46.549Z,24.68
2018-06-27T10:17:56.723Z,24.77
2018-06-27T10:19:06.533Z,24.78
2018-06-27T10:20:16.651Z,24.89
2018-06-27T10:21:26.744Z,24.86
2018-06-27T10:22:36.667Z,24.89
2018-06-27T10:23:47.018Z,25.03
2018-06-27T10:24:56.548Z,25.06
2018-06-27T10:26:06.395Z,25.12
2018-06-27T10:27:15.940Z,25.14
2018-06-27T10:28:25.846Z,25.11
2018-06-27T10:29:36.169Z,25.14
2018-06-27T10:30:45.960Z,25.03
2018-06-27T10:31:55.829Z,25.16
2018-06-27T10:33:05.903Z,25.26
2018-06-27T10:34:15.996Z,25.29
2018-06-27T10:35:25.796Z,25.41
2018-06-27T10:36:35.338Z,25.4
2018-06-27T10:37:44.936Z,25.43
2018-06-27T10:38:54.750Z,25.46
2018-06-27T10:40:04.580Z,25.3
2018-06-27T10:41:14.392Z,25.22
2018-06-27T10:42:23.941Z,25.25
2018-06-27T10:43:33.267Z,25.33
2018-06-27T10:44:42.918Z,25.36
2018-06-27T10:45:53.010Z,25.39
2018-06-27T10:47:03.115Z,25.43
2018-06-27T10:48:12.915Z,25.49
2018-06-27T10:49:22.781Z,25.52
2018-06-27T10:50:32.316Z,25.63
2018-06-27T10:51:42.385Z,25.73
2018-06-27T10:52:52.451Z,25.77
2018-06-27T10:54:02.537Z,25.83
2018-06-27T10:55:11.856Z,25.92
2018-06-27T10:56:21.925Z,25.95
2018-06-27T10:57:31.731Z,26.01
2018-06-27T10:58:41.800Z,26.08
2018-06-27T10:59:51.054Z,25.99
2018-06-27T11:01:00.960Z,26.13
2018-06-27T11:02:10.591Z,26.19
2018-06-27T11:03:20.409Z,26.29
2018-06-27T11:04:30.206Z,26.16
2018-06-27T11:05:40.306Z,26.31
2018-06-27T11:06:50.157Z,26.31
2018-06-27T11:07:59.962Z,26.46
2018-06-27T11:09:09.511Z,26.53
2018-06-27T11:10:19.315Z,26.66
2018-06-27T11:11:29.134Z,26.66
2018-06-27T11:12:39.281Z,26.78
2018-06-27T11:13:49.349Z,26.79
2018-06-27T11:14:59.422Z,26.83
2018-06-27T11:16:08.952Z,26.83
2018-06-27T11:17:18.482Z,26.98
2018-06-27T11:18:28.348Z,26.98
2018-06-27T11:19:38.504Z,27.11
2018-06-27T11:20:48.582Z,27.11
2018-06-27T11:21:57.589Z,27.28
2018-06-27T11:23:07.127Z,27.1
2018-06-27T11:24:16.996Z,27.11
2018-06-27T11:25:27.064Z,27.23
2018-06-27T11:26:37.147Z,27.28
2018-06-27T11:27:46.952Z,27.43
2018-06-27T11:28:56.773Z,27.29
2018-06-27T11:30:06.654Z,27.43
2018-06-27T11:31:16.480Z,27.33
2018-06-27T11:32:26.310Z,27.52
2018-06-27T11:33:35.838Z,27.55
2018-06-27T11:34:45.641Z,27.66
2018-06-27T11:35:55.759Z,27.86
2018-06-27T11:37:05.862Z,28.09
2018-06-27T11:38:15.414Z,28.3
2018-06-27T11:39:25.291Z,28.64
2018-06-27T11:40:35.374Z,29.02
2018-06-27T11:41:45.523Z,29.37
2018-06-27T11:42:55.335Z,29.8
2018-06-27T11:44:05.424Z,30.21
2018-06-27T11:45:14.968Z,30.62
2018-06-27T11:46:24.782Z,31
2018-06-27T11:47:34.909Z,31.5
2018-06-27T11:48:44.717Z,31.87
2018-06-27T11:49:54.794Z,32.29
2018-06-27T11:51:04.612Z,32.68
2018-06-27T11:52:14.697Z,33.08
2018-06-27T11:53:24.741Z,33.48
2018-06-27T11:54:34.993Z,33.7
2018-06-27T11:55:44.795Z,34.03
2018-06-27T11:56:54.886Z,34.51
2018-06-27T11:58:04.983Z,34.91
2018-06-27T11:59:14.853Z,35.37
2018-06-27T12:00:24.659Z,35.57
2018-06-27T12:01:34.743Z,35.96
2018-06-27T12:02:44.816Z,36.24
2018-06-27T12:03:54.630Z,36.41
2018-06-27T12:05:04.785Z,36.75
2018-06-27T12:06:14.866Z,37.1
2018-06-27T12:07:24.690Z,37.34
2018-06-27T12:08:35.090Z,37.33
2018-06-27T12:09:45.294Z,37.61
2018-06-27T12:10:55.187Z,37.88
2018-06-27T12:12:05.013Z,38.25
2018-06-27T12:13:14.833Z,38.63
2018-06-27T12:14:24.927Z,38.36
2018-06-27T12:15:34.742Z,38.53
2018-06-27T12:16:44.922Z,38.57
2018-06-27T12:17:55.187Z,38.84
2018-06-27T12:19:05.302Z,39.26
2018-06-27T12:20:15.396Z,39.59
2018-06-27T12:21:25.505Z,39.93
2018-06-27T12:22:35.394Z,40.17
2018-06-27T12:23:44.964Z,40.4
2018-06-27T12:24:54.829Z,40.74
2018-06-27T12:26:04.665Z,40.96
2018-06-27T12:27:14.765Z,41.3
2018-06-27T12:28:24.077Z,41.58
2018-06-27T12:29:33.886Z,41.45
2018-06-27T12:30:43.450Z,41.44
2018-06-27T12:31:53.282Z,41.7
2018-06-27T12:33:03.371Z,41.91
2018-06-27T12:34:13.246Z,42.07
2018-06-27T12:35:23.076Z,42.02
2018-06-27T12:36:32.918Z,42.17
2018-06-27T12:37:43.024Z,42.32
2018-06-27T12:38:53.132Z,41.48
2018-06-27T12:40:02.740Z,40.29
2018-06-27T12:41:12.293Z,39.89
2018-06-27T12:42:22.411Z,39.15
2018-06-27T12:43:32.239Z,38.56
2018-06-27T12:44:42.069Z,37.98
2018-06-27T12:45:52.198Z,37.78
2018-06-27T12:47:02.295Z,38.23
2018-06-27T12:48:12.133Z,38.79
2018-06-27T12:49:22.228Z,39.26
2018-06-27T12:50:31.777Z,39.7
2018-06-27T12:51:41.925Z,39.94
2018-06-27T12:52:52.014Z,39.94
2018-06-27T12:54:02.108Z,39.95
2018-06-27T12:55:12.195Z,40.02
2018-06-27T12:56:22.297Z,40.42
2018-06-27T12:57:32.225Z,40.71
2018-06-27T12:58:41.793Z,40.76
2018-06-27T12:59:52.263Z,41.12
2018-06-27T13:01:02.382Z,41.44
2018-06-27T13:02:12.223Z,41.45
2018-06-27T13:03:21.922Z,41.8
2018-06-27T13:04:31.543Z,42.15
2018-06-27T13:05:41.105Z,42.37
2018-06-27T13:06:51.211Z,42.71
2018-06-27T13:08:01.304Z,42.99
2018-06-27T13:09:10.809Z,43.38
2018-06-27T13:10:21.480Z,43.62
2018-06-27T13:11:31.626Z,43.77
2018-06-27T13:12:41.713Z,43.85
2018-06-27T13:13:51.552Z,44.07
2018-06-27T13:15:01.153Z,44.44
2018-06-27T13:16:10.713Z,44.34
2018-06-27T13:17:20.798Z,44.09
2018-06-27T13:18:30.345Z,43.97
2018-06-27T13:19:40.442Z,43.72
2018-06-27T13:20:50.588Z,43.66
2018-06-27T13:22:00.420Z,43.47
2018-06-27T13:23:10.516Z,43
2018-06-27T13:24:20.338Z,42.93
2018-06-27T13:25:29.894Z,42.92
2018-06-27T13:26:39.775Z,42.86
2018-06-27T13:27:49.579Z,42.56
2018-06-27T13:28:59.688Z,42.53
2018-06-27T13:30:09.527Z,42.24
2018-06-27T13:31:19.357Z,41.83
2018-06-27T13:32:29.257Z,41.22
2018-06-27T13:33:39.355Z,40.74
2018-06-27T13:34:49.582Z,40.46
2018-06-27T13:35:59.858Z,40.16
2018-06-27T13:37:09.676Z,39.82
2018-06-27T13:38:19.272Z,39.51
2018-06-27T13:39:29.364Z,39.29
2018-06-27T13:40:38.933Z,38.98
2018-06-27T13:41:48.772Z,38.81
2018-06-27T13:42:58.587Z,38.62
2018-06-27T13:44:08.735Z,38.54
2018-06-27T13:45:18.572Z,38.39
2018-06-27T13:46:28.388Z,38.22
2018-06-27T13:47:38.193Z,38.09
2018-06-27T13:48:47.743Z,37.9
2018-06-27T13:49:57.772Z,37.92
2018-06-27T13:51:07.444Z,37.83
2018-06-27T13:52:17.253Z,37.66
2018-06-27T13:53:27.340Z,37.68
2018-06-27T13:54:36.894Z,37.71
2018-06-27T13:55:46.793Z,37.73
2018-06-27T13:56:56.613Z,37.71
2018-06-27T13:58:06.427Z,37.4
2018-06-27T13:59:16.546Z,37.33
2018-06-27T14:00:26.753Z,37.18
2018-06-27T14:01:37.310Z,37.16
2018-06-27T14:02:47.406Z,36.99
2018-06-27T14:03:56.957Z,37
2018-06-27T14:05:06.779Z,36.99
2018-06-27T14:06:16.928Z,37.09
2018-06-27T14:07:27.150Z,36.97
2018-06-27T14:08:36.960Z,36.94
2018-06-27T14:09:47.085Z,37.16
2018-06-27T14:10:57.156Z,37.26
2018-06-27T14:12:06.710Z,37.75
2018-06-27T14:13:16.598Z,38.13
2018-06-27T14:14:26.434Z,38.58
2018-06-27T14:15:36.510Z,39.17
2018-06-27T14:16:46.610Z,39.66
2018-06-27T14:17:56.698Z,40.16
2018-06-27T14:19:06.839Z,40.61
2018-06-27T14:20:16.932Z,40.66
2018-06-27T14:21:26.760Z,40.61
2018-06-27T14:22:36.863Z,40.74
2018-06-27T14:23:46.414Z,40.98
2018-06-27T14:24:56.275Z,41.18
2018-06-27T14:26:06.103Z,41.46
2018-06-27T14:27:15.917Z,41.74
2018-06-27T14:28:26.008Z,42.14
2018-06-27T14:29:35.299Z,42.39
2018-06-27T14:30:45.165Z,42.75
2018-06-27T14:31:54.448Z,43.02
2018-06-27T14:33:04.373Z,43.09
2018-06-27T14:34:14.207Z,43.22
2018-06-27T14:35:23.493Z,43.25
2018-06-27T14:36:33.090Z,43.27
2018-06-27T14:37:43.356Z,42.74
2018-06-27T14:38:53.626Z,42.56
2018-06-27T14:40:03.887Z,42.51
2018-06-27T14:41:13.793Z,42.58
2018-06-27T14:42:23.394Z,42.37
2018-06-27T14:43:33.207Z,42.39
2018-06-27T14:44:42.766Z,41.96
2018-06-27T14:45:52.604Z,41.7
2018-06-27T14:47:02.430Z,41.64
2018-06-27T14:48:12.032Z,41.07
2018-06-27T14:49:22.302Z,40.95
2018-06-27T14:50:32.583Z,40.71
2018-06-27T14:51:42.706Z,40.7
2018-06-27T14:52:52.700Z,40.64
2018-06-27T14:54:02.876Z,40.69
2018-06-27T14:55:12.392Z,41.07
2018-06-27T14:56:22.482Z,41.08
2018-06-27T14:57:32.314Z,41.18
2018-06-27T14:58:42.160Z,41.61
2018-06-27T14:59:52.337Z,42.34
2018-06-27T15:01:02.425Z,42.87
2018-06-27T15:02:12.521Z,43.09
2018-06-27T15:03:22.346Z,43.53
2018-06-27T15:04:32.462Z,43.77
2018-06-27T15:05:42.072Z,44.1
2018-06-27T15:06:51.903Z,44.35